sensor_id;sensor_type;location;lat;lon;timestamp;temperature;humidity
78297;DHT22;67555;47.660;19.622;2023-12-29T00:00:39;2.50;77.80
78297;DHT22;67555;47.660;19.622;2023-12-29T00:03:05;2.70;77.60
78297;DHT22;67555;47.660;19.622;2023-12-29T00:05:31;2.50;77.40
78297;DHT22;67555;47.660;19.622;2023-12-29T00:07:56;2.50;77.90
78297;DHT22;67555;47.660;19.622;2023-12-29T00:10:22;2.30;78.60
78297;DHT22;67555;47.660;19.622;2023-12-29T00:12:48;2.30;79.10
78297;DHT22;67555;47.660;19.622;2023-12-29T00:15:17;2.30;79.40
78297;DHT22;67555;47.660;19.622;2023-12-29T00:17:44;2.30;79.60
78297;DHT22;67555;47.660;19.622;2023-12-29T00:20:10;2.40;79.50
78297;DHT22;67555;47.660;19.622;2023-12-29T00:22:36;2.50;79.30
78297;DHT22;67555;47.660;19.622;2023-12-29T00:25:01;2.50;79.30
78297;DHT22;67555;47.660;19.622;2023-12-29T00:27:28;2.50;79.00
78297;DHT22;67555;47.660;19.622;2023-12-29T00:29:54;2.60;78.90
78297;DHT22;67555;47.660;19.622;2023-12-29T00:32:20;2.70;78.70
78297;DHT22;67555;47.660;19.622;2023-12-29T00:34:46;2.70;78.40
78297;DHT22;67555;47.660;19.622;2023-12-29T00:37:12;2.70;78.40
78297;DHT22;67555;47.660;19.622;2023-12-29T00:39:37;2.80;78.60
78297;DHT22;67555;47.660;19.622;2023-12-29T00:42:06;2.90;78.30
78297;DHT22;67555;47.660;19.622;2023-12-29T00:44:33;2.90;78.00
78297;DHT22;67555;47.660;19.622;2023-12-29T00:46:59;2.90;78.00
78297;DHT22;67555;47.660;19.622;2023-12-29T00:49:26;2.80;78.10
78297;DHT22;67555;47.660;19.622;2023-12-29T00:51:52;2.70;78.30
78297;DHT22;67555;47.660;19.622;2023-12-29T00:54:18;2.70;78.40
78297;DHT22;67555;47.660;19.622;2023-12-29T00:56:50;2.50;78.70
78297;DHT22;67555;47.660;19.622;2023-12-29T00:59:17;2.50;79.00
78297;DHT22;67555;47.660;19.622;2023-12-29T01:01:43;2.50;79.00
78297;DHT22;67555;47.660;19.622;2023-12-29T01:04:10;2.50;78.90
78297;DHT22;67555;47.660;19.622;2023-12-29T01:06:35;2.50;78.90
78297;DHT22;67555;47.660;19.622;2023-12-29T01:09:01;2.50;78.90
78297;DHT22;67555;47.660;19.622;2023-12-29T01:11:27;2.50;78.80
78297;DHT22;67555;47.660;19.622;2023-12-29T01:13:54;2.50;78.70
78297;DHT22;67555;47.660;19.622;2023-12-29T01:16:20;2.50;78.70
78297;DHT22;67555;47.660;19.622;2023-12-29T01:18:46;2.40;78.70
78297;DHT22;67555;47.660;19.622;2023-12-29T01:21:11;2.30;78.70
78297;DHT22;67555;47.660;19.622;2023-12-29T01:23:37;2.20;79.00
78297;DHT22;67555;47.660;19.622;2023-12-29T01:26:03;2.00;79.50
78297;DHT22;67555;47.660;19.622;2023-12-29T01:28:28;2.00;79.80
78297;DHT22;67555;47.660;19.622;2023-12-29T01:30:54;2.00;79.70
78297;DHT22;67555;47.660;19.622;2023-12-29T01:33:20;2.00;79.80
78297;DHT22;67555;47.660;19.622;2023-12-29T01:35:47;2.00;79.80
78297;DHT22;67555;47.660;19.622;2023-12-29T01:38:13;2.10;79.90
78297;DHT22;67555;47.660;19.622;2023-12-29T01:40:46;2.10;79.80
78297;DHT22;67555;47.660;19.622;2023-12-29T01:43:12;2.20;79.60
78297;DHT22;67555;47.660;19.622;2023-12-29T01:45:38;2.30;79.40
78297;DHT22;67555;47.660;19.622;2023-12-29T01:48:04;2.20;79.20
78297;DHT22;67555;47.660;19.622;2023-12-29T01:50:30;2.20;79.10
78297;DHT22;67555;47.660;19.622;2023-12-29T01:52:56;2.30;79.20
78297;DHT22;67555;47.660;19.622;2023-12-29T01:55:23;2.40;79.00
78297;DHT22;67555;47.660;19.622;2023-12-29T01:57:51;2.50;78.50
78297;DHT22;67555;47.660;19.622;2023-12-29T02:00:17;2.60;78.00
78297;DHT22;67555;47.660;19.622;2023-12-29T02:02:45;2.70;77.70
78297;DHT22;67555;47.660;19.622;2023-12-29T02:05:13;2.70;77.40
78297;DHT22;67555;47.660;19.622;2023-12-29T02:07:41;2.80;77.10
78297;DHT22;67555;47.660;19.622;2023-12-29T02:10:07;2.80;77.00
78297;DHT22;67555;47.660;19.622;2023-12-29T02:12:35;2.80;76.90
78297;DHT22;67555;47.660;19.622;2023-12-29T02:15:05;2.90;76.80
78297;DHT22;67555;47.660;19.622;2023-12-29T02:17:45;2.90;76.70
78297;DHT22;67555;47.660;19.622;2023-12-29T02:20:11;2.90;76.50
78297;DHT22;67555;47.660;19.622;2023-12-29T02:22:37;2.90;76.50
78297;DHT22;67555;47.660;19.622;2023-12-29T02:25:26;2.80;76.40
78297;DHT22;67555;47.660;19.622;2023-12-29T02:27:52;2.50;76.70
78297;DHT22;67555;47.660;19.622;2023-12-29T02:32:59;2.20;78.10
78297;DHT22;67555;47.660;19.622;2023-12-29T02:35:35;1.90;78.70
78297;DHT22;67555;47.660;19.622;2023-12-29T02:38:03;1.80;79.40
78297;DHT22;67555;47.660;19.622;2023-12-29T02:40:29;1.80;79.70
78297;DHT22;67555;47.660;19.622;2023-12-29T02:42:55;1.90;79.80
78297;DHT22;67555;47.660;19.622;2023-12-29T02:45:21;2.00;79.80
78297;DHT22;67555;47.660;19.622;2023-12-29T02:47:47;2.30;79.50
78297;DHT22;67555;47.660;19.622;2023-12-29T02:50:13;2.40;79.10
78297;DHT22;67555;47.660;19.622;2023-12-29T02:52:39;2.50;78.60
78297;DHT22;67555;47.660;19.622;2023-12-29T02:55:05;2.70;78.20
78297;DHT22;67555;47.660;19.622;2023-12-29T02:57:31;2.80;77.90
78297;DHT22;67555;47.660;19.622;2023-12-29T02:59:57;2.70;77.80
78297;DHT22;67555;47.660;19.622;2023-12-29T03:02:23;2.60;78.00
78297;DHT22;67555;47.660;19.622;2023-12-29T03:04:49;2.50;78.40
78297;DHT22;67555;47.660;19.622;2023-12-29T03:07:15;2.50;78.80
78297;DHT22;67555;47.660;19.622;2023-12-29T03:09:40;2.40;79.10
78297;DHT22;67555;47.660;19.622;2023-12-29T03:12:06;2.40;79.30
78297;DHT22;67555;47.660;19.622;2023-12-29T03:14:32;2.40;79.30
78297;DHT22;67555;47.660;19.622;2023-12-29T03:16:59;2.50;79.30
78297;DHT22;67555;47.660;19.622;2023-12-29T03:19:25;2.70;78.90
78297;DHT22;67555;47.660;19.622;2023-12-29T03:21:50;2.80;78.30
78297;DHT22;67555;47.660;19.622;2023-12-29T03:24:16;2.80;78.20
78297;DHT22;67555;47.660;19.622;2023-12-29T03:26:42;2.90;78.00
78297;DHT22;67555;47.660;19.622;2023-12-29T03:29:08;2.90;77.80
78297;DHT22;67555;47.660;19.622;2023-12-29T03:31:33;2.90;77.70
78297;DHT22;67555;47.660;19.622;2023-12-29T03:33:59;2.90;77.90
78297;DHT22;67555;47.660;19.622;2023-12-29T03:36:25;2.90;77.90
78297;DHT22;67555;47.660;19.622;2023-12-29T03:38:50;2.90;77.60
78297;DHT22;67555;47.660;19.622;2023-12-29T03:41:16;3.00;77.50
78297;DHT22;67555;47.660;19.622;2023-12-29T03:43:42;3.00;77.30
78297;DHT22;67555;47.660;19.622;2023-12-29T03:46:21;2.90;77.30
78297;DHT22;67555;47.660;19.622;2023-12-29T03:48:47;2.80;77.50
78297;DHT22;67555;47.660;19.622;2023-12-29T03:51:14;2.80;77.90
78297;DHT22;67555;47.660;19.622;2023-12-29T03:53:40;2.70;78.00
78297;DHT22;67555;47.660;19.622;2023-12-29T03:56:13;2.70;78.20
78297;DHT22;67555;47.660;19.622;2023-12-29T03:58:39;2.70;78.20
78297;DHT22;67555;47.660;19.622;2023-12-29T04:01:09;2.90;78.10
78297;DHT22;67555;47.660;19.622;2023-12-29T04:03:36;3.00;77.50
78297;DHT22;67555;47.660;19.622;2023-12-29T04:06:02;3.10;76.90
78297;DHT22;67555;47.660;19.622;2023-12-29T04:08:28;2.90;77.10
78297;DHT22;67555;47.660;19.622;2023-12-29T04:10:53;2.90;77.30
78297;DHT22;67555;47.660;19.622;2023-12-29T04:13:19;2.70;77.20
78297;DHT22;67555;47.660;19.622;2023-12-29T04:15:45;2.50;77.80
78297;DHT22;67555;47.660;19.622;2023-12-29T04:18:10;2.40;77.90
78297;DHT22;67555;47.660;19.622;2023-12-29T04:20:36;2.40;78.20
78297;DHT22;67555;47.660;19.622;2023-12-29T04:23:03;2.50;78.10
78297;DHT22;67555;47.660;19.622;2023-12-29T04:25:29;2.50;77.90
78297;DHT22;67555;47.660;19.622;2023-12-29T04:27:55;2.70;77.50
78297;DHT22;67555;47.660;19.622;2023-12-29T04:30:20;2.80;77.10
78297;DHT22;67555;47.660;19.622;2023-12-29T04:32:47;2.90;76.80
78297;DHT22;67555;47.660;19.622;2023-12-29T04:35:13;2.90;76.60
78297;DHT22;67555;47.660;19.622;2023-12-29T04:37:44;3.00;76.40
78297;DHT22;67555;47.660;19.622;2023-12-29T04:40:10;3.00;76.20
78297;DHT22;67555;47.660;19.622;2023-12-29T04:42:36;3.00;76.10
78297;DHT22;67555;47.660;19.622;2023-12-29T04:45:02;3.00;76.10
78297;DHT22;67555;47.660;19.622;2023-12-29T04:47:27;3.00;76.20
78297;DHT22;67555;47.660;19.622;2023-12-29T04:49:53;2.90;76.20
78297;DHT22;67555;47.660;19.622;2023-12-29T04:52:19;2.90;76.20
78297;DHT22;67555;47.660;19.622;2023-12-29T04:54:44;2.90;76.20
78297;DHT22;67555;47.660;19.622;2023-12-29T04:57:10;2.80;76.20
78297;DHT22;67555;47.660;19.622;2023-12-29T04:59:36;2.60;76.70
78297;DHT22;67555;47.660;19.622;2023-12-29T05:02:01;2.60;77.30
78297;DHT22;67555;47.660;19.622;2023-12-29T05:04:27;2.70;77.30
78297;DHT22;67555;47.660;19.622;2023-12-29T05:06:53;2.80;77.00
78297;DHT22;67555;47.660;19.622;2023-12-29T05:09:18;2.90;76.70
78297;DHT22;67555;47.660;19.622;2023-12-29T05:11:44;2.90;76.50
78297;DHT22;67555;47.660;19.622;2023-12-29T05:14:10;2.90;76.30
78297;DHT22;67555;47.660;19.622;2023-12-29T05:16:35;2.60;76.90
78297;DHT22;67555;47.660;19.622;2023-12-29T05:19:01;2.50;77.30
78297;DHT22;67555;47.660;19.622;2023-12-29T05:21:27;2.50;77.40
78297;DHT22;67555;47.660;19.622;2023-12-29T05:23:52;2.30;78.00
78297;DHT22;67555;47.660;19.622;2023-12-29T05:26:18;2.20;78.50
78297;DHT22;67555;47.660;19.622;2023-12-29T05:28:44;2.00;79.10
78297;DHT22;67555;47.660;19.622;2023-12-29T05:31:10;1.90;79.70
78297;DHT22;67555;47.660;19.622;2023-12-29T05:33:36;1.90;80.30
78297;DHT22;67555;47.660;19.622;2023-12-29T05:36:09;1.90;80.50
78297;DHT22;67555;47.660;19.622;2023-12-29T05:38:35;1.90;80.80
78297;DHT22;67555;47.660;19.622;2023-12-29T05:41:02;1.80;81.00
78297;DHT22;67555;47.660;19.622;2023-12-29T05:43:30;1.90;81.10
78297;DHT22;67555;47.660;19.622;2023-12-29T05:45:57;2.00;81.20
78297;DHT22;67555;47.660;19.622;2023-12-29T05:48:22;2.10;81.20
78297;DHT22;67555;47.660;19.622;2023-12-29T05:50:52;2.20;81.10
78297;DHT22;67555;47.660;19.622;2023-12-29T05:53:19;2.20;81.20
78297;DHT22;67555;47.660;19.622;2023-12-29T05:55:45;2.30;81.30
78297;DHT22;67555;47.660;19.622;2023-12-29T05:58:11;2.30;81.40
78297;DHT22;67555;47.660;19.622;2023-12-29T06:00:37;2.30;81.50
78297;DHT22;67555;47.660;19.622;2023-12-29T06:03:05;2.30;81.70
78297;DHT22;67555;47.660;19.622;2023-12-29T06:05:31;2.30;81.80
78297;DHT22;67555;47.660;19.622;2023-12-29T06:07:57;2.30;81.90
78297;DHT22;67555;47.660;19.622;2023-12-29T06:10:22;2.20;82.00
78297;DHT22;67555;47.660;19.622;2023-12-29T06:12:49;2.10;82.30
78297;DHT22;67555;47.660;19.622;2023-12-29T06:15:15;2.00;82.90
78297;DHT22;67555;47.660;19.622;2023-12-29T06:17:40;2.00;83.20
78297;DHT22;67555;47.660;19.622;2023-12-29T06:20:07;2.20;83.20
78297;DHT22;67555;47.660;19.622;2023-12-29T06:22:39;2.40;82.60
78297;DHT22;67555;47.660;19.622;2023-12-29T06:25:09;2.70;81.90
78297;DHT22;67555;47.660;19.622;2023-12-29T06:27:35;2.90;81.40
78297;DHT22;67555;47.660;19.622;2023-12-29T06:30:09;3.10;80.80
78297;DHT22;67555;47.660;19.622;2023-12-29T06:32:36;3.20;80.50
78297;DHT22;67555;47.660;19.622;2023-12-29T06:35:02;3.30;80.10
78297;DHT22;67555;47.660;19.622;2023-12-29T06:37:28;3.40;79.80
78297;DHT22;67555;47.660;19.622;2023-12-29T06:39:54;3.50;79.50
78297;DHT22;67555;47.660;19.622;2023-12-29T06:42:20;3.50;79.30
78297;DHT22;67555;47.660;19.622;2023-12-29T06:44:46;3.50;79.40
78297;DHT22;67555;47.660;19.622;2023-12-29T06:47:12;3.50;79.80
78297;DHT22;67555;47.660;19.622;2023-12-29T06:49:38;3.50;80.00
78297;DHT22;67555;47.660;19.622;2023-12-29T06:52:04;3.50;80.10
78297;DHT22;67555;47.660;19.622;2023-12-29T06:54:30;3.40;80.40
78297;DHT22;67555;47.660;19.622;2023-12-29T06:56:56;3.40;80.50
78297;DHT22;67555;47.660;19.622;2023-12-29T06:59:22;3.30;80.90
78297;DHT22;67555;47.660;19.622;2023-12-29T07:01:48;3.20;81.20
78297;DHT22;67555;47.660;19.622;2023-12-29T07:04:14;3.20;81.30
78297;DHT22;67555;47.660;19.622;2023-12-29T07:06:41;3.10;81.70
78297;DHT22;67555;47.660;19.622;2023-12-29T07:09:07;3.10;81.90
78297;DHT22;67555;47.660;19.622;2023-12-29T07:11:35;3.10;81.80
78297;DHT22;67555;47.660;19.622;2023-12-29T07:14:00;3.00;82.20
78297;DHT22;67555;47.660;19.622;2023-12-29T07:16:27;3.10;82.30
78297;DHT22;67555;47.660;19.622;2023-12-29T07:18:52;3.10;82.20
78297;DHT22;67555;47.660;19.622;2023-12-29T07:21:18;3.20;82.00
78297;DHT22;67555;47.660;19.622;2023-12-29T07:23:44;3.30;81.80
78297;DHT22;67555;47.660;19.622;2023-12-29T07:26:10;3.50;81.40
78297;DHT22;67555;47.660;19.622;2023-12-29T07:28:35;3.50;81.20
78297;DHT22;67555;47.660;19.622;2023-12-29T07:31:01;3.60;80.80
78297;DHT22;67555;47.660;19.622;2023-12-29T07:33:28;3.70;80.50
78297;DHT22;67555;47.660;19.622;2023-12-29T07:35:54;3.70;80.20
78297;DHT22;67555;47.660;19.622;2023-12-29T07:38:20;3.60;80.40
78297;DHT22;67555;47.660;19.622;2023-12-29T07:40:45;3.70;80.20
78297;DHT22;67555;47.660;19.622;2023-12-29T07:43:13;3.60;80.00
78297;DHT22;67555;47.660;19.622;2023-12-29T07:45:39;3.70;80.20
78297;DHT22;67555;47.660;19.622;2023-12-29T07:48:05;3.80;80.00
78297;DHT22;67555;47.660;19.622;2023-12-29T07:50:32;3.80;79.70
78297;DHT22;67555;47.660;19.622;2023-12-29T07:52:58;3.70;80.00
78297;DHT22;67555;47.660;19.622;2023-12-29T07:55:31;3.90;79.80
78297;DHT22;67555;47.660;19.622;2023-12-29T07:57:56;3.90;79.40
78297;DHT22;67555;47.660;19.622;2023-12-29T08:00:22;4.00;79.10
78297;DHT22;67555;47.660;19.622;2023-12-29T08:02:49;3.90;79.00
78297;DHT22;67555;47.660;19.622;2023-12-29T08:05:15;4.00;79.20
78297;DHT22;67555;47.660;19.622;2023-12-29T08:07:43;4.00;79.00
78297;DHT22;67555;47.660;19.622;2023-12-29T08:10:09;4.10;78.80
78297;DHT22;67555;47.660;19.622;2023-12-29T08:12:35;4.20;78.40
78297;DHT22;67555;47.660;19.622;2023-12-29T08:15:02;4.40;78.00
78297;DHT22;67555;47.660;19.622;2023-12-29T08:17:28;4.50;77.70
78297;DHT22;67555;47.660;19.622;2023-12-29T08:19:54;4.50;77.50
78297;DHT22;67555;47.660;19.622;2023-12-29T08:22:20;4.50;77.50
78297;DHT22;67555;47.660;19.622;2023-12-29T08:24:48;4.50;77.60
78297;DHT22;67555;47.660;19.622;2023-12-29T08:27:14;4.40;77.80
78297;DHT22;67555;47.660;19.622;2023-12-29T08:29:40;4.30;78.00
78297;DHT22;67555;47.660;19.622;2023-12-29T08:32:07;4.10;78.50
78297;DHT22;67555;47.660;19.622;2023-12-29T08:34:33;4.10;78.80
78297;DHT22;67555;47.660;19.622;2023-12-29T08:37:03;4.10;78.60
78297;DHT22;67555;47.660;19.622;2023-12-29T08:39:29;4.20;78.40
78297;DHT22;67555;47.660;19.622;2023-12-29T08:41:55;4.20;78.20
78297;DHT22;67555;47.660;19.622;2023-12-29T08:44:21;4.30;77.90
78297;DHT22;67555;47.660;19.622;2023-12-29T08:46:46;4.30;77.70
78297;DHT22;67555;47.660;19.622;2023-12-29T08:49:12;4.40;77.60
78297;DHT22;67555;47.660;19.622;2023-12-29T08:51:38;4.50;77.20
78297;DHT22;67555;47.660;19.622;2023-12-29T08:54:04;4.60;76.90
78297;DHT22;67555;47.660;19.622;2023-12-29T08:56:30;4.70;76.60
78297;DHT22;67555;47.660;19.622;2023-12-29T08:58:56;4.70;76.40
78297;DHT22;67555;47.660;19.622;2023-12-29T09:01:22;4.70;76.40
78297;DHT22;67555;47.660;19.622;2023-12-29T09:03:47;4.70;76.20
78297;DHT22;67555;47.660;19.622;2023-12-29T09:06:13;4.70;76.00
78297;DHT22;67555;47.660;19.622;2023-12-29T09:08:39;4.80;75.80
78297;DHT22;67555;47.660;19.622;2023-12-29T09:11:06;4.90;75.70
78297;DHT22;67555;47.660;19.622;2023-12-29T09:13:32;4.90;75.50
78297;DHT22;67555;47.660;19.622;2023-12-29T09:15:59;5.00;75.20
78297;DHT22;67555;47.660;19.622;2023-12-29T09:18:25;4.90;75.00
78297;DHT22;67555;47.660;19.622;2023-12-29T09:20:51;4.60;75.30
78297;DHT22;67555;47.660;19.622;2023-12-29T09:23:17;4.50;76.20
78297;DHT22;67555;47.660;19.622;2023-12-29T09:25:43;4.70;76.20
78297;DHT22;67555;47.660;19.622;2023-12-29T09:28:08;4.90;75.90
78297;DHT22;67555;47.660;19.622;2023-12-29T09:30:34;5.00;75.50
78297;DHT22;67555;47.660;19.622;2023-12-29T09:33:00;5.10;75.00
78297;DHT22;67555;47.660;19.622;2023-12-29T09:35:26;5.20;74.70
78297;DHT22;67555;47.660;19.622;2023-12-29T09:37:51;5.30;74.40
78297;DHT22;67555;47.660;19.622;2023-12-29T09:40:17;5.30;74.20
78297;DHT22;67555;47.660;19.622;2023-12-29T09:42:44;5.40;74.10
78297;DHT22;67555;47.660;19.622;2023-12-29T09:45:12;5.50;73.90
78297;DHT22;67555;47.660;19.622;2023-12-29T09:47:42;5.50;73.80
78297;DHT22;67555;47.660;19.622;2023-12-29T09:50:13;5.50;73.80
78297;DHT22;67555;47.660;19.622;2023-12-29T09:52:39;5.50;73.90
78297;DHT22;67555;47.660;19.622;2023-12-29T09:55:09;5.20;74.60
78297;DHT22;67555;47.660;19.622;2023-12-29T09:57:37;5.00;75.10
78297;DHT22;67555;47.660;19.622;2023-12-29T10:00:04;5.10;75.30
78297;DHT22;67555;47.660;19.622;2023-12-29T10:02:30;5.30;75.00
78297;DHT22;67555;47.660;19.622;2023-12-29T10:05:00;5.40;74.50
78297;DHT22;67555;47.660;19.622;2023-12-29T10:07:27;5.50;74.00
78297;DHT22;67555;47.660;19.622;2023-12-29T10:09:59;5.60;73.50
78297;DHT22;67555;47.660;19.622;2023-12-29T10:12:28;5.70;73.40
78297;DHT22;67555;47.660;19.622;2023-12-29T10:15:12;5.70;73.50
78297;DHT22;67555;47.660;19.622;2023-12-29T10:22:48;5.80;73.60
78297;DHT22;67555;47.660;19.622;2023-12-29T10:25:17;5.70;73.80
78297;DHT22;67555;47.660;19.622;2023-12-29T10:27:43;5.70;74.00
78297;DHT22;67555;47.660;19.622;2023-12-29T10:30:10;5.60;74.30
78297;DHT22;67555;47.660;19.622;2023-12-29T10:32:37;5.70;74.50
78297;DHT22;67555;47.660;19.622;2023-12-29T10:35:10;5.80;74.20
78297;DHT22;67555;47.660;19.622;2023-12-29T10:37:36;5.80;74.00
78297;DHT22;67555;47.660;19.622;2023-12-29T10:40:03;5.70;74.40
78297;DHT22;67555;47.660;19.622;2023-12-29T10:42:29;5.80;74.70
78297;DHT22;67555;47.660;19.622;2023-12-29T10:45:08;6.00;74.50
78297;DHT22;67555;47.660;19.622;2023-12-29T10:47:35;6.20;74.00
78297;DHT22;67555;47.660;19.622;2023-12-29T10:50:02;6.40;73.60
78297;DHT22;67555;47.660;19.622;2023-12-29T10:52:32;6.50;73.20
78297;DHT22;67555;47.660;19.622;2023-12-29T10:57:31;6.50;73.20
78297;DHT22;67555;47.660;19.622;2023-12-29T10:59:58;6.60;73.20
78297;DHT22;67555;47.660;19.622;2023-12-29T11:02:26;6.60;73.00
78297;DHT22;67555;47.660;19.622;2023-12-29T11:05:01;6.70;72.80
78297;DHT22;67555;47.660;19.622;2023-12-29T11:07:46;6.70;72.60
78297;DHT22;67555;47.660;19.622;2023-12-29T11:10:12;6.60;72.70
78297;DHT22;67555;47.660;19.622;2023-12-29T11:12:38;6.70;72.80
78297;DHT22;67555;47.660;19.622;2023-12-29T11:15:06;6.70;72.60
78297;DHT22;67555;47.660;19.622;2023-12-29T11:17:34;6.60;72.80
78297;DHT22;67555;47.660;19.622;2023-12-29T11:20:02;6.60;72.80
78297;DHT22;67555;47.660;19.622;2023-12-29T11:22:32;6.40;73.00
78297;DHT22;67555;47.660;19.622;2023-12-29T11:24:58;6.30;73.60
78297;DHT22;67555;47.660;19.622;2023-12-29T11:27:27;6.30;73.80
78297;DHT22;67555;47.660;19.622;2023-12-29T11:29:53;6.10;74.30
78297;DHT22;67555;47.660;19.622;2023-12-29T11:32:24;6.00;74.80
78297;DHT22;67555;47.660;19.622;2023-12-29T11:35:02;6.00;75.20
78297;DHT22;67555;47.660;19.622;2023-12-29T11:37:33;6.00;75.20
78297;DHT22;67555;47.660;19.622;2023-12-29T11:40:30;6.10;75.10
78297;DHT22;67555;47.660;19.622;2023-12-29T11:43:02;6.10;74.90
78297;DHT22;67555;47.660;19.622;2023-12-29T11:45:33;6.20;74.80
78297;DHT22;67555;47.660;19.622;2023-12-29T11:48:03;6.40;74.40
78297;DHT22;67555;47.660;19.622;2023-12-29T11:50:36;6.60;73.90
78297;DHT22;67555;47.660;19.622;2023-12-29T11:53:04;6.60;73.60
78297;DHT22;67555;47.660;19.622;2023-12-29T11:55:33;6.80;73.40
78297;DHT22;67555;47.660;19.622;2023-12-29T11:58:01;6.90;73.20
78297;DHT22;67555;47.660;19.622;2023-12-29T12:00:46;7.00;72.90
78297;DHT22;67555;47.660;19.622;2023-12-29T12:05:49;7.00;72.90
78297;DHT22;67555;47.660;19.622;2023-12-29T12:08:36;7.00;72.80
78297;DHT22;67555;47.660;19.622;2023-12-29T12:13:57;7.20;72.40
78297;DHT22;67555;47.660;19.622;2023-12-29T12:19:14;7.30;72.10
78297;DHT22;67555;47.660;19.622;2023-12-29T12:21:41;7.20;72.20
78297;DHT22;67555;47.660;19.622;2023-12-29T12:24:07;7.30;72.10
78297;DHT22;67555;47.660;19.622;2023-12-29T12:26:34;7.20;72.20
78297;DHT22;67555;47.660;19.622;2023-12-29T12:29:03;7.20;72.20
78297;DHT22;67555;47.660;19.622;2023-12-29T12:31:30;7.30;72.20
78297;DHT22;67555;47.660;19.622;2023-12-29T12:33:59;7.30;72.30
78297;DHT22;67555;47.660;19.622;2023-12-29T12:36:50;7.20;72.30
78297;DHT22;67555;47.660;19.622;2023-12-29T12:39:41;7.30;72.20
78297;DHT22;67555;47.660;19.622;2023-12-29T12:42:07;7.40;72.20
78297;DHT22;67555;47.660;19.622;2023-12-29T12:44:33;7.40;72.20
78297;DHT22;67555;47.660;19.622;2023-12-29T12:47:01;7.40;72.40
78297;DHT22;67555;47.660;19.622;2023-12-29T12:49:32;7.50;72.30
78297;DHT22;67555;47.660;19.622;2023-12-29T12:52:18;7.40;72.50
78297;DHT22;67555;47.660;19.622;2023-12-29T12:54:45;7.40;72.50
78297;DHT22;67555;47.660;19.622;2023-12-29T12:57:11;7.30;72.90
78297;DHT22;67555;47.660;19.622;2023-12-29T12:59:37;7.20;73.10
78297;DHT22;67555;47.660;19.622;2023-12-29T13:02:03;7.20;73.30
78297;DHT22;67555;47.660;19.622;2023-12-29T13:04:31;7.20;73.40
78297;DHT22;67555;47.660;19.622;2023-12-29T13:06:57;7.20;73.50
78297;DHT22;67555;47.660;19.622;2023-12-29T13:09:22;7.20;73.50
78297;DHT22;67555;47.660;19.622;2023-12-29T13:11:48;7.30;73.40
78297;DHT22;67555;47.660;19.622;2023-12-29T13:14:23;7.30;73.50
78297;DHT22;67555;47.660;19.622;2023-12-29T13:16:48;7.20;73.50
78297;DHT22;67555;47.660;19.622;2023-12-29T13:19:23;7.00;73.90
78297;DHT22;67555;47.660;19.622;2023-12-29T13:21:53;7.00;74.40
78297;DHT22;67555;47.660;19.622;2023-12-29T13:24:21;7.00;74.50
78297;DHT22;67555;47.660;19.622;2023-12-29T13:26:47;7.00;74.80
78297;DHT22;67555;47.660;19.622;2023-12-29T13:29:20;7.00;74.80
78297;DHT22;67555;47.660;19.622;2023-12-29T13:31:49;7.00;74.50
78297;DHT22;67555;47.660;19.622;2023-12-29T13:37:36;7.00;74.00
78297;DHT22;67555;47.660;19.622;2023-12-29T13:40:27;7.00;74.00
78297;DHT22;67555;47.660;19.622;2023-12-29T13:42:58;7.00;73.90
78297;DHT22;67555;47.660;19.622;2023-12-29T13:45:25;6.90;74.40
78297;DHT22;67555;47.660;19.622;2023-12-29T13:47:53;6.80;74.60
78297;DHT22;67555;47.660;19.622;2023-12-29T13:50:19;6.60;75.00
78297;DHT22;67555;47.660;19.622;2023-12-29T13:52:45;6.60;75.30
78297;DHT22;67555;47.660;19.622;2023-12-29T13:55:11;6.70;75.20
78297;DHT22;67555;47.660;19.622;2023-12-29T13:57:36;6.70;75.20
78297;DHT22;67555;47.660;19.622;2023-12-29T14:00:18;6.80;75.10
78297;DHT22;67555;47.660;19.622;2023-12-29T14:05:56;6.80;75.00
78297;DHT22;67555;47.660;19.622;2023-12-29T14:08:48;6.90;74.90
78297;DHT22;67555;47.660;19.622;2023-12-29T14:11:13;6.90;74.70
78297;DHT22;67555;47.660;19.622;2023-12-29T14:13:42;7.00;74.40
78297;DHT22;67555;47.660;19.622;2023-12-29T14:16:08;7.00;74.20
78297;DHT22;67555;47.660;19.622;2023-12-29T14:21:28;7.20;73.90
78297;DHT22;67555;47.660;19.622;2023-12-29T14:24:02;7.20;73.80
78297;DHT22;67555;47.660;19.622;2023-12-29T14:26:30;7.20;73.70
78297;DHT22;67555;47.660;19.622;2023-12-29T14:29:06;7.20;73.80
78297;DHT22;67555;47.660;19.622;2023-12-29T14:31:35;7.00;74.10
78297;DHT22;67555;47.660;19.622;2023-12-29T14:34:21;6.90;74.70
78297;DHT22;67555;47.660;19.622;2023-12-29T14:36:47;6.90;74.70
78297;DHT22;67555;47.660;19.622;2023-12-29T14:39:13;6.90;74.50
78297;DHT22;67555;47.660;19.622;2023-12-29T14:41:40;6.90;74.60
78297;DHT22;67555;47.660;19.622;2023-12-29T14:44:07;6.90;74.60
78297;DHT22;67555;47.660;19.622;2023-12-29T14:46:35;6.70;75.00
78297;DHT22;67555;47.660;19.622;2023-12-29T14:49:02;6.70;75.40
78297;DHT22;67555;47.660;19.622;2023-12-29T14:51:28;6.60;75.70
78297;DHT22;67555;47.660;19.622;2023-12-29T14:53:53;6.60;75.70
78297;DHT22;67555;47.660;19.622;2023-12-29T14:56:19;6.60;75.70
78297;DHT22;67555;47.660;19.622;2023-12-29T14:58:45;6.50;75.80
78297;DHT22;67555;47.660;19.622;2023-12-29T15:01:15;6.30;76.20
78297;DHT22;67555;47.660;19.622;2023-12-29T15:03:42;6.20;76.60
78297;DHT22;67555;47.660;19.622;2023-12-29T15:06:08;6.20;76.60
78297;DHT22;67555;47.660;19.622;2023-12-29T15:08:34;6.10;76.60
78297;DHT22;67555;47.660;19.622;2023-12-29T15:11:05;6.10;76.60
78297;DHT22;67555;47.660;19.622;2023-12-29T15:13:31;6.00;76.60
78297;DHT22;67555;47.660;19.622;2023-12-29T15:16:01;5.90;76.70
78297;DHT22;67555;47.660;19.622;2023-12-29T15:18:27;5.80;76.70
78297;DHT22;67555;47.660;19.622;2023-12-29T15:20:55;5.70;77.00
78297;DHT22;67555;47.660;19.622;2023-12-29T15:23:21;5.50;77.30
78297;DHT22;67555;47.660;19.622;2023-12-29T15:25:49;5.50;77.40
78297;DHT22;67555;47.660;19.622;2023-12-29T15:28:16;5.30;77.80
78297;DHT22;67555;47.660;19.622;2023-12-29T15:30:46;5.00;78.50
78297;DHT22;67555;47.660;19.622;2023-12-29T15:33:12;5.00;78.80
78297;DHT22;67555;47.660;19.622;2023-12-29T15:35:39;4.90;79.10
78297;DHT22;67555;47.660;19.622;2023-12-29T15:38:06;4.70;79.50
78297;DHT22;67555;47.660;19.622;2023-12-29T15:40:32;4.60;80.10
78297;DHT22;67555;47.660;19.622;2023-12-29T15:42:58;4.50;80.30
78297;DHT22;67555;47.660;19.622;2023-12-29T15:45:23;4.50;80.30
78297;DHT22;67555;47.660;19.622;2023-12-29T15:47:53;4.50;80.50
78297;DHT22;67555;47.660;19.622;2023-12-29T15:50:19;4.40;80.80
78297;DHT22;67555;47.660;19.622;2023-12-29T15:52:45;4.40;81.00
78297;DHT22;67555;47.660;19.622;2023-12-29T15:55:10;4.40;81.20
78297;DHT22;67555;47.660;19.622;2023-12-29T15:57:36;4.40;81.10
78297;DHT22;67555;47.660;19.622;2023-12-29T16:00:02;4.50;81.00